createdAt,value
2023-05-16T00:00:39.121Z,8.80
2023-05-16T00:03:07.802Z,8.80
2023-05-16T00:05:36.298Z,8.70
2023-05-16T00:08:07.132Z,8.80
2023-05-16T00:10:35.259Z,8.90
2023-05-16T00:13:03.556Z,8.90
2023-05-16T00:15:33.535Z,8.90
2023-05-16T00:18:03.733Z,8.80
2023-05-16T00:20:32.172Z,8.90
2023-05-16T00:23:01.504Z,8.80
2023-05-16T00:25:29.863Z,8.90
2023-05-16T00:27:58.609Z,8.80
2023-05-16T00:30:26.973Z,8.90
2023-05-16T00:32:57.060Z,8.90
2023-05-16T00:35:25.298Z,8.90
2023-05-16T00:37:53.637Z,8.90
2023-05-16T00:40:21.781Z,9.00
2023-05-16T00:42:50.127Z,9.00
2023-05-16T00:45:18.393Z,9.00
2023-05-16T00:47:46.578Z,9.00
2023-05-16T00:50:17.524Z,8.90
2023-05-16T00:52:45.652Z,9.00
2023-05-16T00:55:14.441Z,9.00
2023-05-16T00:57:42.770Z,9.00
2023-05-16T01:00:12.186Z,8.80
2023-05-16T01:02:40.557Z,8.90
2023-05-16T01:05:11.407Z,9.00
2023-05-16T01:07:41.346Z,9.00
2023-05-16T01:10:10.226Z,8.80
2023-05-16T01:12:39.629Z,8.90
2023-05-16T01:15:12.660Z,9.00
2023-05-16T01:17:47.384Z,9.00
2023-05-16T01:20:21.180Z,8.90
2023-05-16T01:22:54.278Z,9.00
2023-05-16T01:25:34.114Z,9.10
2023-05-16T01:28:04.275Z,9.10
2023-05-16T01:30:35.251Z,9.00
2023-05-16T01:33:03.500Z,9.00
2023-05-16T01:35:32.182Z,9.40
2023-05-16T01:38:03.242Z,9.80
2023-05-16T01:40:37.729Z,9.60
2023-05-16T01:43:10.470Z,9.40
2023-05-16T01:45:41.658Z,9.30
2023-05-16T01:48:12.083Z,9.60
2023-05-16T01:50:44.299Z,9.30
2023-05-16T01:53:16.076Z,9.20
2023-05-16T01:55:46.013Z,9.00
2023-05-16T01:58:16.460Z,9.00
2023-05-16T02:00:45.786Z,8.90
2023-05-16T02:03:14.305Z,8.90
2023-05-16T02:05:42.791Z,8.80
2023-05-16T02:08:11.044Z,8.70
2023-05-16T02:10:40.361Z,8.70
2023-05-16T02:13:08.499Z,8.70
2023-05-16T02:15:38.185Z,8.70
2023-05-16T02:18:06.433Z,8.70
2023-05-16T02:20:34.945Z,8.70
2023-05-16T02:23:03.892Z,8.60
2023-05-16T02:25:32.040Z,8.60
2023-05-16T02:28:00.292Z,8.60
2023-05-16T02:30:28.424Z,8.60
2023-05-16T02:32:58.097Z,8.60
2023-05-16T02:35:26.628Z,8.40
2023-05-16T02:37:55.753Z,8.50
2023-05-16T02:40:24.076Z,8.60
2023-05-16T02:42:52.257Z,8.50
2023-05-16T02:45:20.442Z,8.60
2023-05-16T02:47:48.620Z,8.80
2023-05-16T02:50:18.237Z,8.80
2023-05-16T02:52:47.416Z,8.80
2023-05-16T02:55:22.163Z,8.70
2023-05-16T02:57:51.151Z,8.70
2023-05-16T03:00:19.948Z,8.80
2023-05-16T03:02:48.334Z,8.90
2023-05-16T03:05:17.313Z,9.10
2023-05-16T03:07:46.910Z,9.10
2023-05-16T03:12:43.482Z,9.20
2023-05-16T03:15:12.010Z,9.20
2023-05-16T03:17:40.295Z,9.30
2023-05-16T03:20:10.210Z,9.40
2023-05-16T03:22:38.577Z,9.50
2023-05-16T03:25:08.925Z,9.60
2023-05-16T03:27:37.049Z,9.70
2023-05-16T03:30:05.555Z,9.70
2023-05-16T03:32:36.398Z,9.70
2023-05-16T03:35:04.861Z,9.70
2023-05-16T03:37:33.102Z,9.70
2023-05-16T03:40:01.546Z,9.80
2023-05-16T03:42:31.644Z,9.80
2023-05-16T03:44:59.969Z,9.90
2023-05-16T03:47:31.273Z,9.80
2023-05-16T03:49:59.692Z,9.80
2023-05-16T03:52:27.838Z,9.80
2023-05-16T03:54:56.162Z,9.80
2023-05-16T03:57:24.250Z,9.80
2023-05-16T03:59:53.838Z,9.90
2023-05-16T04:02:22.435Z,9.80
2023-05-16T04:04:50.828Z,9.90
2023-05-16T04:07:19.393Z,10.00
2023-05-16T04:09:48.723Z,10.00
2023-05-16T04:12:16.949Z,9.90
2023-05-16T04:14:45.151Z,9.90
2023-05-16T04:17:16.252Z,9.90
2023-05-16T04:19:47.437Z,9.90
2023-05-16T04:22:15.682Z,9.90
2023-05-16T04:24:43.889Z,9.90
2023-05-16T04:27:12.450Z,9.90
2023-05-16T04:29:40.689Z,9.80
2023-05-16T04:32:09.853Z,9.90
2023-05-16T04:34:40.335Z,9.90
2023-05-16T04:37:09.632Z,9.90
2023-05-16T04:39:38.179Z,10.00
2023-05-16T04:42:06.700Z,10.00
2023-05-16T04:44:35.056Z,10.00
2023-05-16T04:47:03.227Z,9.90
2023-05-16T04:49:31.528Z,9.90
2023-05-16T04:52:01.278Z,9.70
2023-05-16T04:54:29.658Z,9.70
2023-05-16T04:56:58.028Z,9.70
2023-05-16T04:59:26.382Z,9.80
2023-05-16T05:01:54.678Z,9.90
2023-05-16T05:04:22.881Z,9.90
2023-05-16T05:06:51.216Z,9.90
2023-05-16T05:09:23.631Z,10.00
2023-05-16T05:11:51.810Z,10.00
2023-05-16T05:14:21.248Z,10.10
2023-05-16T05:16:49.665Z,10.20
2023-05-16T05:19:18.051Z,10.30
2023-05-16T05:21:46.297Z,10.50
2023-05-16T05:24:14.584Z,10.50
2023-05-16T05:26:44.798Z,10.60
2023-05-16T05:29:13.120Z,10.80
2023-05-16T05:31:41.426Z,10.70
2023-05-16T05:34:09.765Z,10.70
2023-05-16T05:36:37.925Z,10.70
2023-05-16T05:39:06.522Z,10.70
2023-05-16T05:41:34.785Z,10.80
2023-05-16T05:44:04.606Z,10.70
2023-05-16T05:46:33.469Z,10.80
2023-05-16T05:49:02.053Z,10.80
2023-05-16T05:51:30.299Z,10.70
2023-05-16T05:53:58.675Z,10.70
2023-05-16T05:56:26.906Z,10.80
2023-05-16T05:58:55.231Z,10.70
2023-05-16T06:01:24.994Z,10.90
2023-05-16T06:03:53.388Z,10.90
2023-05-16T06:06:21.582Z,10.90
2023-05-16T06:08:49.784Z,11.00
2023-05-16T06:11:18.025Z,11.10
2023-05-16T06:13:46.213Z,11.20
2023-05-16T06:16:14.389Z,11.20
2023-05-16T06:18:44.239Z,11.20
2023-05-16T06:21:12.605Z,11.20
2023-05-16T06:23:40.993Z,11.30
2023-05-16T06:26:09.535Z,11.30
2023-05-16T06:28:37.892Z,11.20
2023-05-16T06:31:09.945Z,11.20
2023-05-16T06:33:38.330Z,11.30
2023-05-16T06:36:08.434Z,11.20
2023-05-16T06:38:36.897Z,11.20
2023-05-16T06:41:05.026Z,11.20
2023-05-16T06:43:33.378Z,11.20
2023-05-16T06:46:01.738Z,11.30
2023-05-16T06:48:30.208Z,11.40
2023-05-16T06:50:58.686Z,11.40
2023-05-16T06:53:28.886Z,11.40
2023-05-16T06:55:57.355Z,11.40
2023-05-16T06:58:25.705Z,11.40
2023-05-16T07:00:54.033Z,11.30
2023-05-16T07:03:22.459Z,11.30
2023-05-16T07:05:53.208Z,11.40
2023-05-16T07:08:21.677Z,11.40
2023-05-16T07:10:51.221Z,11.30
2023-05-16T07:13:19.549Z,11.40
2023-05-16T07:15:47.776Z,11.40
2023-05-16T07:18:16.273Z,11.40
2023-05-16T07:20:44.607Z,11.40
2023-05-16T07:23:13.031Z,11.50
2023-05-16T07:25:41.541Z,11.50
2023-05-16T07:28:11.428Z,11.50
2023-05-16T07:30:41.029Z,11.50
2023-05-16T07:33:09.270Z,11.60
2023-05-16T07:35:39.941Z,11.70
2023-05-16T07:38:09.229Z,11.60
2023-05-16T07:40:37.644Z,11.50
2023-05-16T07:43:07.393Z,11.70
2023-05-16T07:45:37.325Z,11.60
2023-05-16T07:48:05.770Z,11.60
2023-05-16T07:50:34.039Z,11.60
2023-05-16T07:53:02.214Z,11.60
2023-05-16T07:55:30.558Z,11.50
2023-05-16T07:57:58.701Z,11.40
2023-05-16T08:00:26.970Z,11.30
2023-05-16T08:03:00.512Z,11.40
2023-05-16T08:05:29.270Z,11.40
2023-05-16T08:07:57.647Z,11.40
2023-05-16T08:10:26.182Z,11.60
2023-05-16T08:12:54.762Z,11.60
2023-05-16T08:15:23.104Z,11.60
2023-05-16T08:17:51.437Z,11.60
2023-05-16T08:20:21.208Z,11.60
2023-05-16T08:22:54.385Z,11.50
2023-05-16T08:25:22.764Z,11.50
2023-05-16T08:27:51.422Z,11.40
2023-05-16T08:30:19.817Z,11.30
2023-05-16T08:32:51.211Z,11.40
2023-05-16T08:35:19.647Z,11.60
2023-05-16T08:37:49.393Z,11.40
2023-05-16T08:40:17.854Z,11.40
2023-05-16T08:42:46.169Z,11.20
2023-05-16T08:45:14.724Z,11.40
2023-05-16T08:47:43.887Z,11.60
2023-05-16T08:50:12.708Z,11.90
2023-05-16T08:52:43.142Z,12.10
2023-05-16T08:55:12.993Z,12.10
2023-05-16T08:57:42.151Z,12.10
2023-05-16T09:00:13.437Z,12.10
2023-05-16T09:02:44.479Z,12.10
2023-05-16T09:05:14.250Z,12.00
2023-05-16T09:07:43.442Z,12.00
2023-05-16T09:10:13.873Z,11.70
2023-05-16T09:12:43.833Z,11.60
2023-05-16T09:15:12.471Z,11.50
2023-05-16T09:17:44.992Z,11.70
2023-05-16T09:20:14.154Z,11.80
2023-05-16T09:22:51.039Z,11.90
2023-05-16T09:25:29.587Z,11.90
2023-05-16T09:28:01.903Z,11.90
2023-05-16T09:30:31.814Z,11.90
2023-05-16T09:33:00.801Z,11.80
2023-05-16T09:38:00.104Z,11.60
2023-05-16T09:40:29.783Z,11.70
2023-05-16T09:43:03.785Z,11.50
2023-05-16T09:45:32.101Z,11.50
2023-05-16T09:48:04.873Z,11.20
2023-05-16T09:50:34.301Z,11.20
2023-05-16T09:53:02.705Z,11.20
2023-05-16T09:55:32.829Z,11.10
2023-05-16T09:58:03.757Z,11.10
2023-05-16T10:00:32.555Z,11.10
2023-05-16T10:03:04.286Z,11.20
2023-05-16T10:05:34.100Z,11.30
2023-05-16T10:08:03.732Z,11.50
2023-05-16T10:10:34.492Z,11.60
2023-05-16T10:13:03.695Z,11.50
2023-05-16T10:15:32.313Z,11.50
2023-05-16T10:18:02.190Z,11.30
2023-05-16T10:20:30.504Z,11.30
2023-05-16T10:22:59.869Z,11.30
2023-05-16T10:25:33.883Z,11.50
2023-05-16T10:28:04.209Z,11.40
2023-05-16T10:30:33.512Z,11.40
2023-05-16T10:33:02.671Z,11.70
2023-05-16T10:35:31.536Z,11.90
2023-05-16T10:38:00.845Z,11.70
2023-05-16T10:40:29.983Z,12.00
2023-05-16T10:42:58.289Z,12.10
2023-05-16T10:45:28.791Z,12.20
2023-05-16T10:47:58.516Z,12.20
2023-05-16T10:50:36.486Z,12.10
2023-05-16T10:53:17.708Z,12.20
2023-05-16T10:56:06.130Z,12.00
2023-05-16T10:58:48.879Z,11.90
2023-05-16T11:01:19.656Z,12.10
2023-05-16T11:04:04.351Z,12.00
2023-05-16T11:06:34.082Z,12.20
2023-05-16T11:09:10.390Z,11.90
2023-05-16T11:11:43.160Z,11.70
2023-05-16T11:14:18.884Z,11.70
2023-05-16T11:16:51.890Z,11.50
2023-05-16T11:19:34.041Z,11.40
2023-05-16T11:22:18.308Z,11.30
2023-05-16T11:24:53.942Z,11.20
2023-05-16T11:27:23.767Z,11.10
2023-05-16T11:29:52.339Z,11.40
2023-05-16T11:32:23.818Z,11.50
2023-05-16T11:34:52.836Z,11.60
2023-05-16T11:37:21.615Z,11.60
2023-05-16T11:39:49.916Z,11.70
2023-05-16T11:42:18.280Z,11.60
2023-05-16T11:44:46.855Z,11.70
2023-05-16T11:47:15.072Z,11.50
2023-05-16T11:49:45.003Z,11.50
2023-05-16T11:52:13.901Z,11.50
2023-05-16T11:54:42.576Z,11.30
2023-05-16T11:57:11.426Z,11.10
2023-05-16T11:59:40.084Z,10.80
2023-05-16T12:02:09.962Z,10.60
2023-05-16T12:04:39.702Z,10.90
2023-05-16T12:07:09.713Z,10.60
2023-05-16T12:09:37.856Z,10.50
2023-05-16T12:12:06.948Z,10.40
2023-05-16T12:14:35.427Z,10.60
2023-05-16T12:17:04.907Z,10.40
2023-05-16T12:19:33.277Z,10.30
2023-05-16T12:22:01.651Z,10.40
2023-05-16T12:24:37.659Z,10.50
2023-05-16T12:27:05.942Z,10.30
2023-05-16T12:29:36.718Z,10.40
2023-05-16T12:32:05.279Z,10.50
2023-05-16T12:34:35.547Z,10.50
2023-05-16T12:37:03.788Z,10.60
2023-05-16T12:39:42.228Z,10.80
2023-05-16T12:42:10.447Z,11.00
2023-05-16T12:44:38.765Z,11.00
2023-05-16T12:47:13.625Z,11.00
2023-05-16T12:49:48.981Z,11.20
2023-05-16T12:52:20.745Z,11.20
2023-05-16T12:54:57.777Z,11.30
2023-05-16T12:57:26.534Z,11.40
2023-05-16T12:59:54.776Z,11.50
2023-05-16T13:02:23.187Z,11.30
2023-05-16T13:04:51.630Z,11.30
2023-05-16T13:07:24.028Z,11.10
2023-05-16T13:09:55.426Z,10.90
2023-05-16T13:12:27.374Z,11.10
2023-05-16T13:14:55.948Z,11.10
2023-05-16T13:17:30.413Z,11.20
2023-05-16T13:19:59.024Z,11.10
2023-05-16T13:22:27.231Z,11.10
2023-05-16T13:24:56.872Z,11.10
2023-05-16T13:27:31.484Z,11.10
2023-05-16T13:29:59.868Z,11.10
2023-05-16T13:32:28.350Z,11.00
2023-05-16T13:34:56.931Z,11.10
2023-05-16T13:37:26.011Z,11.00
2023-05-16T13:39:54.938Z,11.10
2023-05-16T13:42:27.838Z,11.10
2023-05-16T13:44:56.235Z,11.20
2023-05-16T13:47:24.453Z,11.20
2023-05-16T13:49:52.608Z,11.20
2023-05-16T13:52:21.514Z,11.20
2023-05-16T13:54:49.946Z,11.10
2023-05-16T13:57:18.183Z,11.00
2023-05-16T14:00:11.319Z,11.10
2023-05-16T14:02:36.286Z,11.20
2023-05-16T14:05:04.927Z,11.00
2023-05-16T14:07:36.470Z,11.00
2023-05-16T14:10:07.210Z,11.00
2023-05-16T14:12:38.005Z,11.00
2023-05-16T14:15:08.793Z,11.10
2023-05-16T14:17:37.306Z,11.40
2023-05-16T14:20:09.054Z,11.70
2023-05-16T14:22:37.385Z,11.90
2023-05-16T14:25:06.269Z,12.00
2023-05-16T14:27:34.498Z,12.00
2023-05-16T14:30:02.956Z,11.70
2023-05-16T14:32:32.752Z,11.70
2023-05-16T14:35:00.938Z,11.60
2023-05-16T14:37:29.396Z,11.60
2023-05-16T14:39:57.577Z,11.80
2023-05-16T14:42:25.972Z,11.70
2023-05-16T14:44:54.157Z,11.90
2023-05-16T14:47:22.504Z,12.20
2023-05-16T14:49:55.622Z,11.90
2023-05-16T14:52:23.804Z,12.10
2023-05-16T14:54:52.215Z,12.20
2023-05-16T14:57:20.535Z,12.10
2023-05-16T14:59:49.750Z,11.90
2023-05-16T15:02:18.005Z,12.20
2023-05-16T15:04:46.400Z,12.30
2023-05-16T15:07:16.213Z,12.40
2023-05-16T15:09:44.429Z,12.30
2023-05-16T15:12:12.776Z,12.40
2023-05-16T15:14:40.942Z,12.60
2023-05-16T15:17:09.467Z,12.70
2023-05-16T15:19:37.852Z,12.80
2023-05-16T15:22:11.163Z,12.90
2023-05-16T15:24:40.990Z,12.50
2023-05-16T15:27:09.263Z,12.20
2023-05-16T15:29:37.695Z,12.50
2023-05-16T15:32:06.768Z,12.80
2023-05-16T15:34:36.501Z,12.80
2023-05-16T15:37:04.874Z,12.90
2023-05-16T15:39:33.500Z,12.80
2023-05-16T15:42:10.806Z,12.70
2023-05-16T15:44:39.989Z,12.80
2023-05-16T15:47:08.590Z,12.40
2023-05-16T15:49:36.882Z,12.60
2023-05-16T15:52:05.412Z,12.20
2023-05-16T15:54:33.740Z,12.30
2023-05-16T15:57:03.442Z,12.40
2023-05-16T15:59:32.656Z,12.50
2023-05-16T16:02:04.296Z,12.60
2023-05-16T16:04:32.723Z,12.60
2023-05-16T16:07:01.120Z,12.10
2023-05-16T16:09:29.255Z,12.10
2023-05-16T16:11:57.592Z,12.10
2023-05-16T16:14:34.843Z,12.40
2023-05-16T16:17:05.371Z,12.30
2023-05-16T16:19:33.682Z,12.10
2023-05-16T16:22:01.887Z,12.20
2023-05-16T16:24:33.076Z,12.40
2023-05-16T16:27:01.682Z,12.30
2023-05-16T16:29:34.275Z,12.10
2023-05-16T16:32:02.445Z,12.10
2023-05-16T16:34:30.559Z,12.00
2023-05-16T16:36:58.835Z,11.70
2023-05-16T16:39:27.192Z,11.50
2023-05-16T16:41:56.857Z,11.50
2023-05-16T16:44:25.064Z,11.70
2023-05-16T16:46:57.183Z,11.80
2023-05-16T16:49:25.446Z,11.80
2023-05-16T16:51:53.781Z,12.00
2023-05-16T16:54:22.550Z,12.00
2023-05-16T16:56:50.810Z,11.80
2023-05-16T16:59:22.259Z,11.80
2023-05-16T17:01:50.484Z,12.00
2023-05-16T17:04:20.128Z,12.10
2023-05-16T17:06:48.866Z,12.10
2023-05-16T17:09:19.832Z,12.20
2023-05-16T17:11:48.063Z,12.20
2023-05-16T17:14:19.068Z,12.20
2023-05-16T17:16:47.560Z,12.20
2023-05-16T17:19:15.810Z,12.40
2023-05-16T17:21:45.763Z,12.50
2023-05-16T17:24:14.099Z,12.60
2023-05-16T17:26:43.084Z,12.30
2023-05-16T17:29:11.967Z,11.80
2023-05-16T17:31:43.223Z,11.50
2023-05-16T17:34:11.560Z,11.20
2023-05-16T17:36:39.828Z,10.90
2023-05-16T17:39:11.087Z,11.10
2023-05-16T17:41:42.140Z,11.40
2023-05-16T17:44:10.425Z,11.40
2023-05-16T17:46:39.504Z,11.30
2023-05-16T17:49:08.248Z,11.40
2023-05-16T17:51:46.622Z,11.50
2023-05-16T17:54:17.638Z,11.40
2023-05-16T17:56:45.884Z,11.50
2023-05-16T17:59:15.157Z,11.40
2023-05-16T18:01:43.634Z,11.50
2023-05-16T18:04:12.005Z,11.60
2023-05-16T18:06:40.539Z,11.70
2023-05-16T18:09:10.376Z,11.70
2023-05-16T18:11:40.789Z,11.60
2023-05-16T18:14:12.422Z,11.60
2023-05-16T18:16:40.738Z,11.70
2023-05-16T18:19:09.192Z,11.70
2023-05-16T18:21:38.356Z,11.10
2023-05-16T18:24:08.474Z,10.60
2023-05-16T18:26:37.007Z,10.70
2023-05-16T18:29:06.798Z,10.80
2023-05-16T18:31:35.232Z,10.90
2023-05-16T18:34:03.870Z,11.00
2023-05-16T18:36:33.305Z,11.10
2023-05-16T18:39:01.589Z,11.00
2023-05-16T18:41:37.305Z,11.00
2023-05-16T18:44:07.129Z,11.10
2023-05-16T18:46:35.464Z,11.20
2023-05-16T18:49:03.978Z,11.30
2023-05-16T18:51:32.215Z,11.40
2023-05-16T18:54:00.389Z,11.30
2023-05-16T18:56:28.647Z,11.20
2023-05-16T18:58:56.998Z,11.20
2023-05-16T19:01:26.716Z,11.30
2023-05-16T19:03:55.121Z,11.40
2023-05-16T19:06:23.439Z,11.50
2023-05-16T19:08:54.409Z,11.50
2023-05-16T19:11:22.825Z,11.50
2023-05-16T19:13:51.365Z,11.60
2023-05-16T19:16:19.570Z,11.50
2023-05-16T19:18:49.713Z,11.40
2023-05-16T19:21:20.313Z,11.30
2023-05-16T19:23:48.880Z,11.20
2023-05-16T19:26:17.074Z,11.40
2023-05-16T19:28:45.473Z,11.40
2023-05-16T19:31:13.765Z,11.50
2023-05-16T19:33:42.253Z,11.50
2023-05-16T19:36:13.116Z,11.40
2023-05-16T19:38:41.409Z,11.40
2023-05-16T19:41:12.216Z,11.40
2023-05-16T19:43:40.820Z,11.50
2023-05-16T19:46:09.234Z,11.50
2023-05-16T19:48:37.479Z,11.50
2023-05-16T19:51:06.182Z,11.50
2023-05-16T19:53:35.816Z,11.40
2023-05-16T19:56:04.578Z,11.30
2023-05-16T19:58:32.913Z,11.20
2023-05-16T20:01:01.103Z,11.30
2023-05-16T20:03:29.388Z,11.30
2023-05-16T20:05:58.000Z,11.30
2023-05-16T20:08:28.567Z,11.30
2023-05-16T20:11:01.050Z,11.30
2023-05-16T20:13:30.584Z,11.30
2023-05-16T20:15:59.123Z,11.30
2023-05-16T20:18:27.449Z,11.30
2023-05-16T20:20:58.069Z,11.40
2023-05-16T20:23:27.318Z,11.30
2023-05-16T20:25:55.560Z,11.30
2023-05-16T20:28:26.221Z,11.20
2023-05-16T20:30:54.632Z,11.20
2023-05-16T20:33:23.024Z,11.30
2023-05-16T20:35:51.396Z,11.20
2023-05-16T20:38:19.610Z,11.10
2023-05-16T20:40:48.359Z,11.20
2023-05-16T20:43:16.496Z,11.40
2023-05-16T20:45:46.672Z,11.40
2023-05-16T20:48:15.184Z,11.40
2023-05-16T20:50:45.974Z,11.30
2023-05-16T20:53:14.178Z,11.40
2023-05-16T20:55:42.346Z,11.40
2023-05-16T20:58:10.688Z,11.30
2023-05-16T21:00:38.990Z,11.30
2023-05-16T21:03:09.070Z,11.40
2023-05-16T21:05:37.677Z,11.40
2023-05-16T21:08:06.534Z,11.40
2023-05-16T21:10:34.709Z,11.30
2023-05-16T21:13:02.958Z,11.40
2023-05-16T21:15:31.255Z,11.50
2023-05-16T21:17:59.595Z,11.50
2023-05-16T21:20:30.297Z,11.40
2023-05-16T21:22:59.522Z,11.40
2023-05-16T21:25:27.952Z,11.50
2023-05-16T21:27:58.820Z,11.50
2023-05-16T21:30:27.587Z,11.50
2023-05-16T21:32:55.888Z,11.50
2023-05-16T21:35:24.360Z,11.50
2023-05-16T21:37:54.036Z,11.50
2023-05-16T21:40:25.285Z,11.40
2023-05-16T21:42:53.580Z,11.40
2023-05-16T21:45:21.977Z,11.40
2023-05-16T21:47:52.961Z,11.40
2023-05-16T21:50:21.375Z,11.40
2023-05-16T21:52:49.611Z,11.40
2023-05-16T21:55:19.427Z,11.40
2023-05-16T21:57:47.966Z,11.40
2023-05-16T22:00:16.892Z,11.40
2023-05-16T22:02:45.499Z,11.50
2023-05-16T22:05:14.769Z,11.50
2023-05-16T22:07:48.150Z,11.50
2023-05-16T22:10:17.010Z,11.40
2023-05-16T22:12:48.550Z,11.40
2023-05-16T22:15:16.670Z,11.50
2023-05-16T22:17:48.267Z,11.50
2023-05-16T22:20:17.188Z,11.50
2023-05-16T22:22:45.866Z,11.50
2023-05-16T22:25:14.007Z,11.50
2023-05-16T22:27:44.970Z,11.40
2023-05-16T22:30:14.947Z,11.40
2023-05-16T22:32:43.220Z,11.50
2023-05-16T22:35:11.567Z,11.40
2023-05-16T22:37:39.661Z,11.50
2023-05-16T22:40:08.887Z,11.40
2023-05-16T22:42:37.085Z,11.40
2023-05-16T22:45:05.558Z,11.40
2023-05-16T22:47:35.195Z,11.30
2023-05-16T22:50:03.427Z,11.20
2023-05-16T22:52:31.866Z,11.10
2023-05-16T22:55:01.979Z,11.10
2023-05-16T22:57:30.234Z,11.10
2023-05-16T23:00:00.457Z,11.10
2023-05-16T23:02:28.776Z,11.10
2023-05-16T23:04:58.633Z,11.00
2023-05-16T23:07:28.935Z,11.10
2023-05-16T23:09:57.174Z,11.00
2023-05-16T23:12:26.031Z,11.00
2023-05-16T23:14:54.260Z,11.10
2023-05-16T23:17:22.305Z,11.10
2023-05-16T23:19:50.447Z,11.10
2023-05-16T23:22:20.241Z,11.10
2023-05-16T23:24:48.301Z,11.10
2023-05-16T23:27:16.653Z,11.10
2023-05-16T23:29:44.758Z,11.20
2023-05-16T23:32:13.000Z,11.10
2023-05-16T23:34:41.371Z,11.10
2023-05-16T23:37:09.438Z,11.00
2023-05-16T23:39:39.050Z,10.90
2023-05-16T23:42:07.393Z,10.90
2023-05-16T23:44:35.768Z,10.90
2023-05-16T23:47:04.215Z,10.90
2023-05-16T23:49:32.327Z,10.90
2023-05-16T23:52:00.676Z,10.90
2023-05-16T23:54:28.844Z,10.90
2023-05-16T23:56:58.405Z,10.80
2023-05-16T23:59:26.843Z,10.80
